Time;durP1;ratioP1;P1;durP2;ratioP2;P2;SDS_P1;SDS_P2;PMS_P1;PMS_P2;Temp;Humidity;BMP_temperature;BMP_pressure;BME280_temperature;BME280_humidity;BME280_pressure;Samples;Min_cycle;Max_cycle;Signal;HPM_P1;HPM_P2
2023/09/21 00:01:15;;;;;;;3.47;2.25;;;19.60;58.20;;;21.00;46.16;96712.31;5023121;28;20540;-70
2023/09/21 00:03:44;;;;;;;2.55;2.22;;;19.50;58.40;;;21.00;46.24;96709.59;5042486;28;20049;-70
2023/09/21 00:06:17;;;;;;;3.28;2.72;;;19.50;58.50;;;20.98;46.33;96712.53;5023146;28;20052;-71
2023/09/21 00:08:48;;;;;;;5.10;2.80;;;19.50;58.90;;;20.94;46.07;96708.72;5021565;28;20041;-71
2023/09/21 00:11:16;;;;;;;3.15;2.45;;;19.40;59.00;;;20.97;46.47;96705.47;5023222;28;20303;-71
2023/09/21 00:13:44;;;;;;;2.97;2.00;;;19.40;59.00;;;20.99;46.05;96705.25;5041857;28;20407;-71
2023/09/21 00:16:12;;;;;;;4.28;2.13;;;19.40;58.90;;;20.99;46.14;96705.25;5040850;28;20484;-70
2023/09/21 00:18:42;;;;;;;4.03;2.30;;;19.40;58.90;;;20.93;46.10;96701.66;5009012;28;20480;-70
2023/09/21 00:21:12;;;;;;;3.30;2.33;;;19.40;58.80;;;20.91;46.19;96702.97;5022342;28;20057;-71
2023/09/21 00:23:43;;;;;;;4.35;2.60;;;19.40;58.80;;;20.98;46.50;96703.63;5041907;28;20037;-70
2023/09/21 00:26:11;;;;;;;4.18;2.88;;;19.50;58.80;;;20.97;46.50;96701.97;5040851;28;20044;-71
2023/09/21 00:28:43;;;;;;;3.78;2.53;;;19.50;58.80;;;21.00;46.60;96693.38;5021698;28;20029;-71
2023/09/21 00:31:12;;;;;;;3.13;2.20;;;19.50;58.80;;;20.98;46.24;96685.50;5021074;28;20050;-70
2023/09/21 00:33:41;;;;;;;3.97;2.53;;;19.40;58.90;;;20.90;46.44;96680.53;5023584;28;20037;-70
2023/09/21 00:36:11;;;;;;;3.97;2.20;;;19.40;59.40;;;20.88;46.39;96679.97;5023548;28;20045;-70
2023/09/21 00:38:39;;;;;;;3.42;2.53;;;19.30;59.60;;;20.87;46.81;96678.31;5004064;28;20042;-70
2023/09/21 00:41:07;;;;;;;5.45;2.38;;;19.30;59.80;;;20.80;46.89;96683.91;5020743;28;20500;-70
2023/09/21 00:43:35;;;;;;;3.95;2.20;;;19.20;60.00;;;20.78;46.75;96683.34;5015402;28;20048;-70
2023/09/21 00:46:03;;;;;;;4.82;2.50;;;19.20;60.20;;;20.78;47.05;96677.94;5024094;28;20045;-71
2023/09/21 00:48:38;;;;;;;3.65;2.33;;;19.20;59.90;;;20.72;46.87;96680.81;5022991;28;20419;-71
2023/09/21 00:51:12;;;;;;;4.13;2.25;;;19.10;60.10;;;20.74;46.76;96675.97;5015860;28;20053;-71
2023/09/21 00:53:44;;;;;;;3.88;2.67;;;19.20;60.00;;;20.65;47.41;96667.47;4996058;28;20061;-70
2023/09/21 00:56:16;;;;;;;6.50;3.83;;;19.10;60.70;;;20.61;47.29;96663.63;4996617;28;20058;-70
2023/09/21 00:58:49;;;;;;;3.55;2.50;;;19.00;60.70;;;20.61;47.36;96666.34;5024335;28;20499;-71
2023/09/21 01:01:22;;;;;;;3.58;2.05;;;19.10;60.60;;;20.59;47.46;96666.59;5006305;28;20049;-71
2023/09/21 01:03:58;;;;;;;3.10;2.28;;;19.10;60.60;;;20.51;47.48;96669.69;5007410;28;20502;-70
2023/09/21 01:06:26;;;;;;;2.30;2.10;;;19.10;60.70;;;20.46;47.59;96665.00;5027352;28;20041;-70
2023/09/21 01:08:54;;;;;;;3.42;2.50;;;19.10;60.70;;;20.53;47.77;96664.84;5045603;28;20048;-70
2023/09/21 01:11:22;;;;;;;2.97;2.67;;;19.10;60.50;;;20.60;47.35;96662.78;5043990;28;20041;-71
2023/09/21 01:13:51;;;;;;;4.85;2.08;;;19.20;60.00;;;20.55;47.87;96651.91;5023646;28;20140;-71
2023/09/21 01:16:23;;;;;;;2.60;2.00;;;19.20;60.20;;;20.58;47.33;96669.50;5032844;28;20412;-71
2023/09/21 01:18:52;;;;;;;3.08;2.38;;;19.20;60.10;;;20.62;47.52;96660.66;5027311;28;20076;-71
2023/09/21 01:21:35;;;;;;;2.83;2.13;;;19.20;59.90;;;20.67;47.39;96651.00;5009688;28;20049;-70
2023/09/21 01:24:05;;;;;;;3.03;2.13;;;19.30;59.80;;;20.70;47.18;96645.09;5023779;28;20045;-70
2023/09/21 01:26:33;;;;;;;4.10;2.60;;;19.30;59.80;;;20.67;47.26;96648.31;5009858;28;20158;-71
2023/09/21 01:29:01;;;;;;;3.42;2.67;;;19.30;59.90;;;20.66;47.43;96647.47;5027738;28;20044;-70
2023/09/21 01:31:29;;;;;;;4.13;2.38;;;19.30;59.80;;;20.68;46.96;96644.50;5032593;28;20045;-70
2023/09/21 01:34:00;;;;;;;3.65;2.30;;;19.30;59.80;;;20.67;47.26;96641.00;5041462;28;20413;-70
2023/09/21 01:36:28;;;;;;;4.20;2.28;;;19.20;59.80;;;20.69;47.02;96641.56;5016529;28;20053;-70
2023/09/21 01:38:58;;;;;;;3.85;3.28;;;19.20;59.90;;;20.72;47.15;96642.94;5025044;28;20049;-70
2023/09/21 01:41:26;;;;;;;4.00;3.03;;;19.20;60.00;;;20.72;47.31;96632.13;5013159;28;20045;-70
2023/09/21 01:43:54;;;;;;;3.60;2.40;;;19.20;60.30;;;20.70;47.35;96624.25;5005924;28;20046;-70
2023/09/21 01:46:21;;;;;;;3.75;2.38;;;19.10;61.40;;;20.70;47.08;96629.66;4994600;28;20056;-71
2023/09/21 01:48:50;;;;;;;2.45;2.05;;;19.10;60.80;;;20.72;47.39;96621.31;5008689;28;20045;-71
2023/09/21 01:51:18;;;;;;;3.00;2.53;;;19.10;60.70;;;20.71;47.51;96625.91;5023999;28;20049;-71
2023/09/21 01:53:47;;;;;;;3.10;2.58;;;19.10;60.70;;;20.71;47.45;96628.63;5004074;28;20105;-71
2023/09/21 01:56:15;;;;;;;2.95;2.30;;;19.10;60.80;;;20.69;47.31;96621.84;5011741;28;20050;-71
2023/09/21 01:58:43;;;;;;;2.67;2.10;;;19.10;61.00;;;20.70;47.27;96618.03;4975243;28;20045;-71
2023/09/21 02:01:15;;;;;;;3.72;2.40;;;19.10;61.00;;;20.64;47.25;96617.16;4975370;28;20041;-70
2023/09/21 02:03:44;;;;;;;2.60;2.05;;;19.10;61.20;;;20.65;47.52;96614.22;5011567;28;20493;-70
2023/09/21 02:06:13;;;;;;;4.32;2.55;;;19.10;61.10;;;20.66;47.43;96609.59;5021341;28;20504;-71
2023/09/21 02:08:41;;;;;;;3.00;2.38;;;19.10;61.10;;;20.70;47.30;96612.63;4979747;28;20073;-70
2023/09/21 02:11:09;;;;;;;2.83;2.25;;;19.10;61.10;;;20.76;47.23;96617.03;4995386;28;20060;-71
2023/09/21 02:13:37;;;;;;;2.75;2.28;;;19.20;60.80;;;20.78;47.29;96604.06;5005081;28;20060;-70
2023/09/21 02:16:06;;;;;;;3.97;3.05;;;19.20;60.70;;;20.81;47.57;96601.69;5023831;28;20037;-70
2023/09/21 02:18:34;;;;;;;2.72;2.25;;;19.20;60.60;;;20.82;47.70;96602.50;5011685;28;20504;-71
2023/09/21 02:21:02;;;;;;;4.82;2.83;;;19.30;60.70;;;20.83;47.44;96602.25;5003578;28;20038;-70
2023/09/21 02:23:30;;;;;;;2.97;2.28;;;19.30;60.70;;;20.82;47.45;96600.63;5002850;28;20054;-71
2023/09/21 02:25:58;;;;;;;2.58;2.10;;;19.20;60.80;;;20.82;47.40;96599.78;4990017;28;20046;-70
2023/09/21 02:28:25;;;;;;;3.53;2.20;;;19.30;61.10;;;20.88;47.15;96595.25;5005140;28;20503;-71
2023/09/21 02:30:53;;;;;;;3.38;2.20;;;19.30;60.80;;;20.91;47.62;96592.88;5004970;28;20417;-71
2023/09/21 02:33:22;;;;;;;3.55;2.30;;;19.30;60.70;;;20.94;47.44;96586.16;5021186;28;20061;-71
2023/09/21 02:35:51;;;;;;;3.80;2.30;;;19.40;60.60;;;20.97;46.85;96577.53;5022459;28;20045;-70
2023/09/21 02:38:22;;;;;;;3.05;2.33;;;19.40;60.20;;;21.01;46.95;96578.66;4989948;28;20049;-71
2023/09/21 02:40:49;;;;;;;2.85;2.15;;;19.40;60.30;;;20.98;47.14;96571.06;5020631;28;20377;-70
2023/09/21 02:43:18;;;;;;;3.95;2.30;;;19.40;60.60;;;20.99;47.01;96565.38;4994532;28;20045;-70
2023/09/21 02:45:48;;;;;;;3.03;2.25;;;19.40;60.70;;;20.99;47.14;96565.38;5002973;28;20077;-70
2023/09/21 02:48:16;;;;;;;3.50;2.38;;;19.40;60.70;;;21.01;47.11;96562.41;5002721;28;20046;-71
2023/09/21 02:50:48;;;;;;;3.25;2.60;;;19.30;61.60;;;21.03;47.04;96555.69;5012584;28;20042;-70
2023/09/21 02:53:17;;;;;;;2.25;1.90;;;19.40;60.70;;;21.10;46.98;96550.06;5002089;28;20050;-70
2023/09/21 02:55:52;;;;;;;2.63;1.95;;;19.50;60.30;;;21.14;47.06;96553.09;4990995;28;20049;-70
2023/09/21 02:58:23;;;;;;;2.88;2.10;;;19.50;60.00;;;21.19;46.70;96556.66;5002294;28;20420;-70
2023/09/21 03:00:54;;;;;;;3.13;2.45;;;19.60;59.80;;;21.22;46.85;96553.44;5006868;28;20046;-70
2023/09/21 03:03:23;;;;;;;5.15;3.53;;;19.70;59.70;;;21.26;46.67;96547.53;5005269;28;20042;-70
2023/09/21 03:05:52;;;;;;;5.00;3.13;;;19.70;59.40;;;21.27;46.56;96546.44;4986673;28;20049;-70
2023/09/21 03:08:22;;;;;;;3.22;1.88;;;19.70;59.40;;;21.27;46.56;96539.16;4994252;28;20520;-70
2023/09/21 03:10:54;;;;;;;3.00;2.10;;;19.80;59.40;;;21.26;46.94;96536.69;4990474;28;20523;-70
2023/09/21 03:13:23;;;;;;;4.68;2.70;;;19.80;59.50;;;21.22;47.01;96541.78;5005020;28;20050;-70
2023/09/21 03:15:58;;;;;;;4.20;2.75;;;19.70;60.50;;;21.22;47.53;96545.31;4986748;28;20122;-70
2023/09/21 03:18:27;;;;;;;3.67;2.42;;;19.60;61.10;;;21.22;47.46;96533.69;4992057;28;20061;-70
2023/09/21 03:20:56;;;;;;;4.75;3.00;;;19.50;61.30;;;21.22;47.70;96533.69;5004481;28;20045;-70
2023/09/21 03:23:26;;;;;;;3.83;2.55;;;19.50;61.60;;;21.17;47.23;96534.47;5004370;28;20042;-70
2023/09/21 03:25:55;;;;;;;3.72;2.58;;;19.50;61.40;;;21.12;47.34;96537.09;5018590;28;20512;-70
2023/09/21 03:28:24;;;;;;;3.20;2.58;;;19.50;60.90;;;21.13;47.41;96532.50;5001484;28;20473;-70
2023/09/21 03:30:54;;;;;;;2.67;2.20;;;19.60;60.60;;;21.12;47.58;96544.41;5004828;28;20057;-70
2023/09/21 03:33:22;;;;;;;4.15;1.83;;;19.60;60.60;;;21.12;47.66;96544.41;4989357;28;20072;-70
2023/09/21 03:35:51;;;;;;;3.25;2.55;;;19.70;60.70;;;21.09;47.78;96545.72;4981731;28;20060;-70
2023/09/21 03:38:21;;;;;;;4.20;2.33;;;19.60;60.80;;;21.08;47.98;96541.41;4989955;28;20053;-71
2023/09/21 03:40:49;;;;;;;3.40;2.58;;;19.60;61.00;;;21.07;48.30;96534.34;5010075;28;20050;-70
2023/09/21 03:43:18;;;;;;;3.75;2.55;;;19.50;62.10;;;21.02;48.65;96537.00;4998300;28;20047;-70
2023/09/21 03:45:47;;;;;;;3.38;2.25;;;19.30;63.50;;;20.94;48.61;96543.69;4985332;28;20053;-70
2023/09/21 03:48:16;;;;;;;3.85;2.60;;;19.10;64.90;;;20.90;49.27;96544.44;5009629;28;20065;-70
2023/09/21 03:50:45;;;;;;;3.45;2.83;;;19.00;65.80;;;20.82;49.53;96543.00;4996540;28;20049;-70
2023/09/21 03:53:15;;;;;;;3.08;2.38;;;18.90;66.80;;;20.76;49.60;96539.44;5020962;28;20056;-70
2023/09/21 03:55:43;;;;;;;4.20;2.53;;;18.90;67.30;;;20.75;49.94;96536.97;4985803;28;20065;-70
2023/09/21 03:58:12;;;;;;;3.92;2.95;;;18.90;67.80;;;20.73;49.89;96528.31;5004142;28;20054;-70
2023/09/21 04:00:41;;;;;;;4.07;2.72;;;18.90;68.30;;;20.69;50.36;96528.00;4995675;28;20053;-69
2023/09/21 04:03:10;;;;;;;3.40;2.63;;;18.80;68.70;;;20.62;50.21;96532.78;4988537;28;20052;-70
2023/09/21 04:06:03;;;;;;;4.43;3.28;;;18.70;68.80;;;20.59;50.32;96522.44;5003860;28;20452;-71
2023/09/21 04:08:31;;;;;;;3.47;2.72;;;18.70;69.20;;;20.58;50.40;96526.19;5007553;28;20060;-71
2023/09/21 04:10:59;;;;;;;2.90;2.60;;;18.70;69.20;;;20.51;50.92;96525.56;4988603;28;20053;-70
2023/09/21 04:13:27;;;;;;;3.13;2.22;;;18.60;69.30;;;20.43;50.79;96521.41;5011791;28;20049;-70
2023/09/21 04:15:55;;;;;;;3.53;2.65;;;18.50;69.30;;;20.41;51.00;96534.38;4985430;28;20049;-71
2023/09/21 04:18:22;;;;;;;3.63;2.80;;;18.50;69.40;;;20.33;50.80;96522.09;4993287;28;20046;-71
2023/09/21 04:20:53;;;;;;;3.13;2.47;;;18.60;68.50;;;20.28;51.31;96527.47;4977672;28;20038;-71
2023/09/21 04:23:43;;;;;;;5.22;2.53;;;18.70;68.90;;;20.31;51.63;96520.72;4989933;28;20050;-71
2023/09/21 04:26:12;;;;;;;3.63;2.45;;;18.70;69.30;;;20.34;51.66;96526.47;5003860;28;20057;-71
2023/09/21 04:28:39;;;;;;;3.65;2.40;;;18.80;69.80;;;20.37;52.11;96517.84;5010814;28;20501;-71
2023/09/21 04:31:09;;;;;;;3.72;2.70;;;18.80;70.00;;;20.30;52.33;96519.94;4997688;28;20051;-71
2023/09/21 04:33:37;;;;;;;3.97;2.88;;;18.70;70.50;;;20.38;51.73;96507.84;5002083;28;20054;-70
2023/09/21 04:36:05;;;;;;;3.80;2.35;;;18.80;69.50;;;20.39;51.56;96507.59;5003769;28;20052;-70
2023/09/21 04:38:34;;;;;;;2.25;1.95;;;18.80;68.60;;;20.44;50.90;96496.84;4975251;28;20045;-70
2023/09/21 04:41:04;;;;;;;2.55;2.03;;;18.90;67.40;;;20.53;50.56;96493.69;5006341;28;20065;-70
2023/09/21 04:43:32;;;;;;;3.72;2.70;;;19.00;66.60;;;20.62;50.42;96484.91;5013276;28;20057;-70
2023/09/21 04:46:03;;;;;;;2.70;1.95;;;19.20;65.60;;;20.72;50.08;96486.91;4991999;28;20409;-71
2023/09/21 04:48:33;;;;;;;3.55;2.40;;;19.30;65.00;;;20.83;50.44;96485.13;5015355;28;20050;-70
2023/09/21 04:51:01;;;;;;;3.75;2.40;;;19.30;65.30;;;20.89;50.82;96486.81;5022519;28;20072;-71
2023/09/21 04:53:29;;;;;;;4.15;2.97;;;19.40;67.30;;;20.91;51.57;96491.97;5001678;28;20425;-70
2023/09/21 04:55:57;;;;;;;4.00;2.63;;;19.40;68.70;;;20.87;51.58;96497.06;4992172;28;20045;-70
2023/09/21 04:58:26;;;;;;;3.78;2.63;;;19.20;69.10;;;20.87;51.36;96504.38;4992106;28;20053;-71
2023/09/21 05:00:54;;;;;;;4.28;3.13;;;19.20;69.80;;;20.84;51.46;96509.22;5012543;28;20053;-70
2023/09/21 05:03:21;;;;;;;3.78;2.72;;;19.10;69.20;;;20.80;51.52;96504.56;5004277;28;20050;-70
2023/09/21 05:05:52;;;;;;;3.80;2.75;;;19.00;69.80;;;20.76;52.31;96501.59;5006173;28;20508;-71
2023/09/21 05:08:21;;;;;;;3.83;2.22;;;19.00;70.50;;;20.76;52.17;96504.28;5007513;28;20053;-70
2023/09/21 05:10:49;;;;;;;3.05;2.53;;;19.00;70.60;;;20.74;51.81;96508.28;5013212;28;20052;-71
2023/09/21 05:13:19;;;;;;;3.67;2.42;;;19.00;69.90;;;20.69;52.07;96510.97;5007179;28;20062;-71
2023/09/21 05:15:48;;;;;;;4.55;2.58;;;18.90;70.10;;;20.65;52.01;96500.63;5024219;28;20061;-71
2023/09/21 05:18:16;;;;;;;4.07;2.50;;;18.80;70.80;;;20.62;51.82;96501.13;5025382;28;20049;-69
2023/09/21 05:20:45;;;;;;;4.65;3.17;;;18.80;70.90;;;20.58;51.99;96502.69;5022211;28;20052;-69
2023/09/21 05:23:12;;;;;;;3.67;2.58;;;18.70;70.70;;;20.57;51.87;96486.72;5022011;28;20160;-69
2023/09/21 05:25:40;;;;;;;3.90;2.65;;;18.70;70.80;;;20.56;52.24;96490.50;5022359;28;20053;-69
2023/09/21 05:28:08;;;;;;;4.88;2.83;;;18.70;71.10;;;20.56;52.01;96487.78;5025245;28;20050;-70
2023/09/21 05:30:35;;;;;;;4.25;2.35;;;18.70;71.10;;;20.54;52.07;96485.34;5024716;28;20488;-70
2023/09/21 05:33:03;;;;;;;5.25;2.65;;;18.80;71.00;;;20.55;51.98;96486.16;4988637;28;20061;-70
2023/09/21 05:35:31;;;;;;;5.78;2.65;;;18.80;71.10;;;20.58;51.72;96475.66;5021222;28;20045;-69
2023/09/21 05:37:59;;;;;;;5.72;2.72;;;18.80;70.40;;;20.63;51.83;96474.94;5013425;28;20045;-70
2023/09/21 05:40:26;;;;;;;3.70;2.70;;;18.90;70.50;;;20.67;52.03;96469.84;5004241;28;20112;-72
2023/09/21 05:42:54;;;;;;;3.90;2.80;;;19.00;70.00;;;20.71;52.52;96479.88;5023952;28;20069;-70
2023/09/21 05:45:22;;;;;;;5.53;2.40;;;19.10;70.70;;;20.73;52.27;96477.75;5024523;28;20045;-70
2023/09/21 05:47:49;;;;;;;3.53;2.85;;;19.10;70.50;;;20.74;52.22;96487.47;5005389;28;20057;-71
2023/09/21 05:50:18;;;;;;;8.98;4.07;;;19.00;69.90;;;20.71;51.87;96479.88;5020480;28;20152;-70
2023/09/21 05:52:46;;;;;;;12.70;3.65;;;19.00;69.20;;;20.73;52.19;96483.16;5022794;28;20046;-70
2023/09/21 05:55:16;;;;;;;6.28;2.70;;;19.00;69.80;;;20.77;51.92;96476.16;5022778;28;20049;-72
2023/09/21 05:57:47;;;;;;;4.55;2.22;;;19.10;69.20;;;20.81;51.89;96479.16;5019617;28;20046;-67
2023/09/21 06:00:17;;;;;;;3.95;2.58;;;19.20;69.10;;;20.83;51.95;96472.44;5022844;28;20045;-65
2023/09/21 06:02:45;;;;;;;3.90;3.30;;;19.20;69.30;;;20.84;51.53;96481.38;5006057;28;20042;-65
2023/09/21 06:05:13;;;;;;;2.55;2.22;;;19.20;68.90;;;20.85;51.81;96483.81;5020776;28;20061;-65
2023/09/21 06:07:40;;;;;;;3.92;2.47;;;19.20;68.70;;;20.89;52.21;96488.72;5021506;28;20052;-65
2023/09/21 06:10:08;;;;;;;3.88;2.92;;;19.20;70.10;;;20.90;52.53;96484.94;5006042;28;20049;-67
2023/09/21 06:12:36;;;;;;;4.40;2.75;;;19.30;71.10;;;20.92;52.67;96482.78;5006881;28;20041;-67
2023/09/21 06:15:05;;;;;;;4.95;3.05;;;19.30;71.70;;;20.93;52.55;96481.72;5012631;28;20385;-66
2023/09/21 06:17:34;;;;;;;4.28;2.90;;;19.30;71.20;;;20.90;52.85;96476.81;5021346;28;20034;-67
2023/09/21 06:20:03;;;;;;;4.28;2.97;;;19.30;72.20;;;20.90;53.10;96471.41;5020066;28;20434;-66
2023/09/21 06:22:31;;;;;;;4.25;2.60;;;19.20;72.70;;;20.88;53.42;96479.78;5024214;28;20041;-67
2023/09/21 06:25:02;;;;;;;5.80;3.28;;;19.20;72.60;;;20.85;53.54;96474.88;5020906;28;20492;-68
2023/09/21 06:27:30;;;;;;;4.55;2.97;;;19.20;73.40;;;20.83;54.16;96482.44;5002989;28;20050;-68
2023/09/21 06:29:58;;;;;;;7.82;3.67;;;19.10;74.60;;;20.82;53.88;96484.34;4988907;28;20117;-68
2023/09/21 06:32:26;;;;;;;4.68;3.35;;;19.10;74.70;;;20.81;54.17;96479.16;5023865;28;20046;-67
2023/09/21 06:34:55;;;;;;;4.75;2.53;;;19.10;74.90;;;20.83;54.30;96475.13;5004227;28;20052;-66
2023/09/21 06:37:23;;;;;;;4.55;2.90;;;19.20;74.90;;;20.86;54.12;96473.81;5020557;28;20408;-66
2023/09/21 06:39:51;;;;;;;5.57;2.85;;;19.10;75.30;;;20.84;54.28;96474.06;5010266;28;20046;-65
2023/09/21 06:42:19;;;;;;;3.70;2.75;;;19.10;76.00;;;20.84;54.56;96471.38;5006274;28;20052;-67
2023/09/21 06:44:52;;;;;;;4.20;2.78;;;19.10;75.80;;;20.87;54.66;96477.34;5004698;28;20049;-65
2023/09/21 06:47:22;;;;;;;3.75;2.85;;;19.20;75.50;;;20.89;54.66;96473.28;5004629;28;20061;-65
2023/09/21 06:49:53;;;;;;;4.30;2.92;;;19.30;75.10;;;20.87;54.77;96475.44;5021079;28;20038;-66
2023/09/21 06:52:21;;;;;;;5.85;3.03;;;19.30;75.40;;;20.91;54.87;96479.25;4990395;28;20496;-64
2023/09/21 06:54:49;;;;;;;5.32;3.55;;;19.30;76.00;;;20.94;54.61;96486.88;5021929;28;20496;-66
2023/09/21 06:57:23;;;;;;;27.05;7.85;;;19.30;75.30;;;20.93;54.65;96489.84;5020011;28;20042;-65
2023/09/21 06:59:51;;;;;;;35.20;7.88;;;19.30;75.10;;;20.93;54.87;96487.13;5009686;28;20045;-66
2023/09/21 07:02:22;;;;;;;17.33;4.35;;;19.30;75.20;;;20.95;54.64;96491.19;5020288;28;20423;-67
2023/09/21 07:04:50;;;;;;;7.00;3.40;;;19.30;74.50;;;20.83;54.94;96490.53;5003258;28;20042;-67
2023/09/21 07:07:18;;;;;;;3.72;2.67;;;19.20;76.10;;;20.81;55.34;96487.28;5023423;28;20037;-66
2023/09/21 07:09:45;;;;;;;7.13;2.88;;;19.10;76.80;;;20.75;55.19;96472.09;5005183;28;20041;-67
2023/09/21 07:12:14;;;;;;;5.05;3.35;;;19.00;77.30;;;20.74;55.82;96467.72;5002491;28;20053;-68
2023/09/21 07:14:41;;;;;;;5.75;3.05;;;19.00;77.40;;;20.77;55.71;96459.94;5001602;28;20046;-67
2023/09/21 07:17:09;;;;;;;3.42;2.50;;;19.10;77.00;;;20.82;55.26;96457.28;4994166;28;20038;-68
2023/09/21 07:19:37;;;;;;;5.47;2.97;;;19.20;76.50;;;20.91;55.41;96464.94;5019930;28;20052;-67
2023/09/21 07:22:05;;;;;;;4.43;3.25;;;19.40;76.00;;;20.95;55.13;96458.75;5012539;28;20052;-67
2023/09/21 07:24:33;;;;;;;3.53;2.50;;;19.50;75.30;;;20.99;54.95;96461.75;5022573;28;20057;-68
2023/09/21 07:27:01;;;;;;;3.45;2.70;;;19.60;73.90;;;21.09;54.91;96455.63;5003081;28;20045;-68
2023/09/21 07:29:31;;;;;;;5.15;2.78;;;19.80;72.80;;;21.20;54.37;96451.94;5000675;28;20484;-67
2023/09/21 07:32:00;;;;;;;2.83;2.50;;;19.90;72.20;;;21.30;53.59;96451.19;5020672;28;20064;-66
2023/09/21 07:34:29;;;;;;;7.78;2.17;;;20.00;70.20;;;21.42;53.45;96449.94;4998039;28;20057;-67
2023/09/21 07:36:57;;;;;;;3.88;2.40;;;20.10;70.40;;;21.52;53.71;96446.53;5003194;28;20081;-66
2023/09/21 07:39:25;;;;;;;5.20;2.30;;;20.20;70.20;;;21.62;53.63;96446.59;5005342;28;20037;-67
2023/09/21 07:41:53;;;;;;;4.60;3.28;;;20.30;71.00;;;21.68;54.76;96447.44;5004321;28;20033;-67
2023/09/21 07:44:22;;;;;;;5.13;4.32;;;20.40;73.00;;;21.71;54.87;96441.47;5018792;28;20044;-67
2023/09/21 07:46:52;;;;;;;8.43;4.20;;;20.30;73.40;;;21.73;55.28;96424.97;5019768;28;20049;-67
2023/09/21 07:49:20;;;;;;;6.60;4.25;;;20.40;74.20;;;21.76;55.26;96427.97;5022553;28;20046;-66
2023/09/21 07:51:48;;;;;;;7.30;4.22;;;20.40;75.10;;;21.82;55.51;96434.25;4988725;28;20076;-66
2023/09/21 07:54:16;;;;;;;9.02;4.05;;;20.40;75.20;;;21.87;55.42;96428.03;5018483;28;20500;-68
2023/09/21 07:56:46;;;;;;;4.63;3.35;;;20.40;75.70;;;21.91;55.45;96434.56;5001876;28;20038;-67
2023/09/21 07:59:15;;;;;;;4.85;3.38;;;20.50;75.30;;;21.92;55.33;96431.59;5011406;28;20038;-66
2023/09/21 08:01:44;;;;;;;4.20;2.80;;;20.50;74.70;;;21.96;54.60;96424.56;5018920;28;20049;-71
2023/09/21 08:04:12;;;;;;;7.82;3.20;;;20.60;73.70;;;22.00;54.51;96417.56;5022255;28;20488;-69
2023/09/21 08:06:40;;;;;;;5.00;3.47;;;20.60;73.20;;;22.03;54.58;96418.91;5022492;28;20045;-70
2023/09/21 08:09:08;;;;;;;9.68;3.45;;;20.80;73.20;;;22.11;54.55;96414.88;5019824;28;20050;-71
2023/09/21 08:11:53;;;;;;;6.35;3.25;;;20.80;72.60;;;22.16;54.14;96420.34;4998103;28;20046;-70
2023/09/21 08:14:21;;;;;;;4.53;3.30;;;20.90;71.70;;;22.17;54.18;96419.22;4987165;28;20042;-71
2023/09/21 08:16:49;;;;;;;5.63;3.53;;;20.90;71.30;;;22.13;54.26;96410.81;4994276;28;20211;-71
2023/09/21 08:19:16;;;;;;;4.95;3.97;;;20.90;71.00;;;22.14;54.38;96415.16;5001255;28;20042;-70
2023/09/21 08:21:44;;;;;;;4.47;3.67;;;20.90;71.10;;;22.16;54.10;96404.06;4995155;28;20054;-70
2023/09/21 08:24:12;;;;;;;4.40;3.40;;;21.00;70.90;;;22.17;53.90;96405.69;4994963;28;20054;-70
2023/09/21 08:26:40;;;;;;;4.47;3.80;;;21.00;70.70;;;22.21;53.85;96398.66;4996821;28;20038;-70
2023/09/21 08:29:09;;;;;;;6.53;3.60;;;21.00;70.70;;;22.20;53.97;96405.97;4994837;28;20076;-70
2023/09/21 08:31:37;;;;;;;4.32;3.03;;;21.00;70.70;;;22.26;53.89;96408.75;4982474;28;20050;-70
2023/09/21 08:34:04;;;;;;;5.25;3.20;;;21.10;70.60;;;22.33;53.92;96410.13;4995182;28;20052;-70
2023/09/21 08:36:32;;;;;;;5.65;3.42;;;21.10;70.40;;;22.45;53.73;96418.03;4982188;28;20050;-70
2023/09/21 08:39:00;;;;;;;4.70;3.40;;;21.30;70.20;;;22.52;53.61;96418.56;4995503;28;20050;-70
2023/09/21 08:41:29;;;;;;;4.63;3.47;;;21.40;69.90;;;22.63;53.19;96424.03;4979503;28;20058;-70
2023/09/21 08:43:57;;;;;;;4.22;3.00;;;21.50;69.40;;;22.70;53.41;96416.44;4979621;28;20998;-70
2023/09/21 08:46:26;;;;;;;6.90;3.75;;;21.60;69.50;;;22.77;53.63;96420.50;4970960;28;20458;-70
2023/09/21 08:48:58;;;;;;;4.38;3.47;;;21.70;69.30;;;22.87;53.44;96421.59;4979180;28;20048;-71
2023/09/21 08:51:28;;;;;;;5.20;3.50;;;21.80;69.10;;;22.97;53.02;96429.75;4971698;28;20057;-70
2023/09/21 08:53:59;;;;;;;8.25;3.97;;;21.80;68.60;;;23.07;53.03;96434.41;4979313;28;20076;-70
2023/09/21 08:56:32;;;;;;;7.35;4.30;;;21.90;68.60;;;23.16;52.55;96427.34;4996274;28;20049;-71
2023/09/21 08:59:03;;;;;;;5.85;3.20;;;22.10;68.00;;;23.23;52.73;96424.38;4990701;28;20102;-70
2023/09/21 09:01:30;;;;;;;3.28;2.70;;;22.10;67.80;;;23.29;52.35;96415.16;4980126;28;20057;-70
2023/09/21 09:03:58;;;;;;;6.20;3.72;;;22.20;67.60;;;23.36;52.46;96407.53;4996829;28;20046;-70
2023/09/21 09:06:29;;;;;;;4.43;3.13;;;22.30;67.50;;;23.42;52.28;96403.72;4988963;28;20050;-70
2023/09/21 09:08:57;;;;;;;4.35;3.40;;;22.40;67.20;;;23.50;52.29;96394.22;4999385;28;20197;-70
2023/09/21 09:11:40;;;;;;;4.95;2.90;;;22.40;67.20;;;23.57;52.24;96394.72;4979385;28;20417;-70
2023/09/21 09:14:14;;;;;;;5.07;3.37;;;22.50;66.60;;;23.66;51.74;96387.66;4983673;28;20046;-69
2023/09/21 09:16:42;;;;;;;5.97;2.90;;;22.60;66.10;;;23.72;51.40;96385.75;5002092;28;20057;-69
2023/09/21 09:19:11;;;;;;;4.35;3.40;;;22.70;66.00;;;23.77;51.29;96383.00;5018693;28;20507;-70
2023/09/21 09:21:40;;;;;;;4.07;3.45;;;22.70;65.70;;;23.80;51.40;96382.47;5025777;28;20038;-69
2023/09/21 09:24:11;;;;;;;5.68;3.70;;;22.70;65.70;;;23.84;51.29;96386.25;5003213;28;20042;-67
2023/09/21 09:26:39;;;;;;;6.78;3.25;;;22.80;65.80;;;23.89;51.33;96378.09;5004455;28;20041;-69
2023/09/21 09:29:12;;;;;;;7.28;4.00;;;22.80;65.70;;;23.90;51.00;96376.19;5005843;28;20057;-70
2023/09/21 09:31:41;;;;;;;5.10;3.78;;;22.80;65.40;;;23.95;51.04;96373.47;4975969;28;20416;-70
2023/09/21 09:34:16;;;;;;;6.03;3.65;;;22.90;65.50;;;24.02;51.16;96371.28;5022924;28;20048;-70
2023/09/21 09:36:50;;;;;;;9.80;3.58;;;23.00;65.50;;;24.08;50.97;96361.16;4991996;28;20046;-70
2023/09/21 09:39:19;;;;;;;7.30;3.20;;;23.00;65.00;;;24.15;50.82;96358.97;5006994;28;20049;-71
2023/09/21 09:41:48;;;;;;;8.05;3.58;;;23.10;64.80;;;24.20;50.38;96360.84;5007823;28;20448;-70
2023/09/21 09:44:22;;;;;;;8.52;3.00;;;23.20;64.10;;;24.25;50.38;96358.09;5021904;28;20053;-71
2023/09/21 09:46:58;;;;;;;7.80;3.00;;;23.20;64.00;;;24.32;50.15;96355.88;4969861;28;20045;-71
2023/09/21 09:49:28;;;;;;;5.03;3.40;;;23.20;63.80;;;24.38;49.98;96357.47;4990894;28;20046;-70
2023/09/21 09:52:00;;;;;;;5.15;3.20;;;23.30;63.60;;;24.40;49.99;96341.69;5006031;28;20054;-71
2023/09/21 09:54:30;;;;;;;6.63;3.15;;;23.30;63.60;;;24.44;50.04;96342.75;4973317;28;20049;-69
2023/09/21 09:57:01;;;;;;;8.80;3.70;;;23.40;63.40;;;24.48;49.81;96343.81;4973153;28;20061;-70
2023/09/21 09:59:30;;;;;;;5.13;3.30;;;23.40;63.50;;;24.53;49.46;96341.09;5011065;28;20049;-70
2023/09/21 10:01:59;;;;;;;7.22;3.30;;;23.50;63.00;;;24.56;49.39;96335.09;4990288;28;20512;-70
2023/09/21 10:04:33;;;;;;;8.15;3.80;;;23.50;62.60;;;24.59;49.14;96331.00;4999366;28;20044;-69
2023/09/21 10:07:02;;;;;;;8.10;3.08;;;23.50;62.10;;;24.62;48.96;96326.88;5024501;28;20410;-69
2023/09/21 10:09:31;;;;;;;10.18;3.50;;;23.60;61.70;;;24.66;48.63;96331.50;5000741;28;20050;-69
2023/09/21 10:12:03;;;;;;;9.70;3.40;;;23.60;61.30;;;24.70;47.93;96327.09;5012551;28;20057;-69
2023/09/21 10:14:35;;;;;;;10.40;3.60;;;23.70;60.30;;;24.75;47.88;96328.97;4999688;28;20050;-70
2023/09/21 10:17:05;;;;;;;8.80;3.10;;;23.70;60.10;;;24.77;47.25;96324.84;5007151;28;20076;-60
2023/09/21 10:19:38;;;;;;;8.00;3.28;;;23.70;59.00;;;24.81;47.17;96324.28;5020596;28;20053;-67
2023/09/21 10:22:23;;;;;;;6.00;2.53;;;23.80;59.00;;;24.83;47.32;96317.47;5004736;28;20050;-66
2023/09/21 10:24:54;;;;;;;5.13;3.10;;;23.80;57.50;;;24.88;46.63;96320.16;5016516;28;20042;-67
2023/09/21 10:27:25;;;;;;;9.57;2.92;;;23.80;58.30;;;24.91;46.51;96311.44;5021473;28;20420;-67
2023/09/21 10:30:07;;;;;;;5.93;2.60;;;23.80;58.10;;;24.99;46.74;96314.59;5003616;28;20085;-66